sensor_id;sensor_type;location;lat;lon;timestamp;temperature;humidity
19258;DHT22;9763;48.780;9.212;2023-07-29T00:00:52;20.80;92.80
19258;DHT22;9763;48.780;9.212;2023-07-29T00:04:18;20.80;93.10
19258;DHT22;9763;48.780;9.212;2023-07-29T00:07:42;20.80;93.30
19258;DHT22;9763;48.780;9.212;2023-07-29T00:11:06;20.80;93.50
19258;DHT22;9763;48.780;9.212;2023-07-29T00:14:31;20.90;93.70
19258;DHT22;9763;48.780;9.212;2023-07-29T00:17:54;20.80;93.60
19258;DHT22;9763;48.780;9.212;2023-07-29T00:21:18;20.80;93.80
19258;DHT22;9763;48.780;9.212;2023-07-29T00:24:41;20.80;93.80
19258;DHT22;9763;48.780;9.212;2023-07-29T00:28:06;20.90;93.70
19258;DHT22;9763;48.780;9.212;2023-07-29T00:31:31;20.90;93.70
19258;DHT22;9763;48.780;9.212;2023-07-29T00:34:54;21.20;93.90
19258;DHT22;9763;48.780;9.212;2023-07-29T00:38:18;20.90;93.90
19258;DHT22;9763;48.780;9.212;2023-07-29T00:41:42;18.90;92.90
19258;DHT22;9763;48.780;9.212;2023-07-29T00:45:06;20.90;93.90
19258;DHT22;9763;48.780;9.212;2023-07-29T00:48:32;20.90;94.00
19258;DHT22;9763;48.780;9.212;2023-07-29T00:51:57;21.00;94.00
19258;DHT22;9763;48.780;9.212;2023-07-29T00:55:21;21.00;93.90
19258;DHT22;9763;48.780;9.212;2023-07-29T00:58:44;21.00;93.70
19258;DHT22;9763;48.780;9.212;2023-07-29T01:02:09;21.00;93.60
19258;DHT22;9763;48.780;9.212;2023-07-29T01:05:46;21.00;93.40
19258;DHT22;9763;48.780;9.212;2023-07-29T01:09:28;21.00;93.30
19258;DHT22;9763;48.780;9.212;2023-07-29T01:13:04;21.00;93.20
19258;DHT22;9763;48.780;9.212;2023-07-29T01:16:41;21.00;93.10
19258;DHT22;9763;48.780;9.212;2023-07-29T01:20:08;21.00;93.00
19258;DHT22;9763;48.780;9.212;2023-07-29T01:23:36;21.00;93.30
19258;DHT22;9763;48.780;9.212;2023-07-29T01:27:00;21.00;93.20
19258;DHT22;9763;48.780;9.212;2023-07-29T01:30:31;21.00;93.20
19258;DHT22;9763;48.780;9.212;2023-07-29T01:34:06;21.00;93.10
19258;DHT22;9763;48.780;9.212;2023-07-29T01:37:36;21.00;93.40
19258;DHT22;9763;48.780;9.212;2023-07-29T01:41:06;21.00;93.60
19258;DHT22;9763;48.780;9.212;2023-07-29T01:44:32;21.00;93.70
19258;DHT22;9763;48.780;9.212;2023-07-29T01:47:56;21.10;94.00
19258;DHT22;9763;48.780;9.212;2023-07-29T01:51:20;21.00;93.90
19258;DHT22;9763;48.780;9.212;2023-07-29T01:54:44;21.00;93.80
19258;DHT22;9763;48.780;9.212;2023-07-29T01:58:09;21.10;93.90
19258;DHT22;9763;48.780;9.212;2023-07-29T02:01:34;21.10;93.80
19258;DHT22;9763;48.780;9.212;2023-07-29T02:04:58;21.10;93.90
19258;DHT22;9763;48.780;9.212;2023-07-29T02:08:21;21.10;93.80
19258;DHT22;9763;48.780;9.212;2023-07-29T02:11:45;21.10;93.60
19258;DHT22;9763;48.780;9.212;2023-07-29T02:15:10;21.10;93.40
19258;DHT22;9763;48.780;9.212;2023-07-29T02:18:34;21.10;93.20
19258;DHT22;9763;48.780;9.212;2023-07-29T02:21:58;21.10;93.20
19258;DHT22;9763;48.780;9.212;2023-07-29T02:25:21;21.10;93.30
19258;DHT22;9763;48.780;9.212;2023-07-29T02:28:45;21.10;92.90
19258;DHT22;9763;48.780;9.212;2023-07-29T02:32:10;21.10;92.70
19258;DHT22;9763;48.780;9.212;2023-07-29T02:35:34;21.00;92.40
19258;DHT22;9763;48.780;9.212;2023-07-29T02:38:58;21.00;92.40
19258;DHT22;9763;48.780;9.212;2023-07-29T02:42:21;20.90;92.30
19258;DHT22;9763;48.780;9.212;2023-07-29T02:45:45;20.90;92.30
19258;DHT22;9763;48.780;9.212;2023-07-29T02:49:10;20.90;92.50
19258;DHT22;9763;48.780;9.212;2023-07-29T02:52:33;20.90;92.60
19258;DHT22;9763;48.780;9.212;2023-07-29T02:55:57;20.80;92.80
19258;DHT22;9763;48.780;9.212;2023-07-29T02:59:20;20.80;92.90
19258;DHT22;9763;48.780;9.212;2023-07-29T03:02:44;20.80;92.90
19258;DHT22;9763;48.780;9.212;2023-07-29T03:06:13;20.80;92.90
19258;DHT22;9763;48.780;9.212;2023-07-29T03:09:37;20.80;92.80
19258;DHT22;9763;48.780;9.212;2023-07-29T03:13:01;20.80;92.90
19258;DHT22;9763;48.780;9.212;2023-07-29T03:16:25;20.80;92.80
19258;DHT22;9763;48.780;9.212;2023-07-29T03:19:51;20.80;92.70
19258;DHT22;9763;48.780;9.212;2023-07-29T03:23:16;20.90;92.70
19258;DHT22;9763;48.780;9.212;2023-07-29T03:26:40;20.80;92.40
19258;DHT22;9763;48.780;9.212;2023-07-29T03:30:07;20.80;92.60
19258;DHT22;9763;48.780;9.212;2023-07-29T03:33:31;20.80;92.70
19258;DHT22;9763;48.780;9.212;2023-07-29T03:36:55;20.70;92.70
19258;DHT22;9763;48.780;9.212;2023-07-29T03:40:20;20.70;92.80
19258;DHT22;9763;48.780;9.212;2023-07-29T03:43:44;20.70;92.90
19258;DHT22;9763;48.780;9.212;2023-07-29T03:47:08;20.90;93.10
19258;DHT22;9763;48.780;9.212;2023-07-29T03:50:34;20.70;93.10
19258;DHT22;9763;48.780;9.212;2023-07-29T03:53:58;20.70;93.30
19258;DHT22;9763;48.780;9.212;2023-07-29T03:57:23;20.80;93.40
19258;DHT22;9763;48.780;9.212;2023-07-29T04:00:47;20.80;93.30
19258;DHT22;9763;48.780;9.212;2023-07-29T04:04:10;20.80;93.60
19258;DHT22;9763;48.780;9.212;2023-07-29T04:07:35;20.80;93.70
19258;DHT22;9763;48.780;9.212;2023-07-29T04:10:59;20.90;94.00
19258;DHT22;9763;48.780;9.212;2023-07-29T04:14:24;20.90;94.10
19258;DHT22;9763;48.780;9.212;2023-07-29T04:17:47;20.90;93.80
19258;DHT22;9763;48.780;9.212;2023-07-29T04:21:11;21.00;93.70
19258;DHT22;9763;48.780;9.212;2023-07-29T04:24:35;21.00;93.60
19258;DHT22;9763;48.780;9.212;2023-07-29T04:27:58;21.10;93.70
19258;DHT22;9763;48.780;9.212;2023-07-29T04:31:23;20.90;93.90
19258;DHT22;9763;48.780;9.212;2023-07-29T04:34:47;20.90;93.80
19258;DHT22;9763;48.780;9.212;2023-07-29T04:38:11;20.90;93.60
19258;DHT22;9763;48.780;9.212;2023-07-29T04:41:34;20.90;93.50
19258;DHT22;9763;48.780;9.212;2023-07-29T04:44:58;20.90;93.50
19258;DHT22;9763;48.780;9.212;2023-07-29T04:48:23;20.90;93.60
19258;DHT22;9763;48.780;9.212;2023-07-29T04:51:46;20.80;93.40
19258;DHT22;9763;48.780;9.212;2023-07-29T04:55:10;21.10;93.70
19258;DHT22;9763;48.780;9.212;2023-07-29T04:58:34;20.80;93.80
19258;DHT22;9763;48.780;9.212;2023-07-29T05:01:57;20.80;94.10
19258;DHT22;9763;48.780;9.212;2023-07-29T05:05:22;20.70;94.20
19258;DHT22;9763;48.780;9.212;2023-07-29T05:08:46;20.70;94.10
19258;DHT22;9763;48.780;9.212;2023-07-29T05:12:09;20.70;94.30
19258;DHT22;9763;48.780;9.212;2023-07-29T05:15:33;20.80;94.50
19258;DHT22;9763;48.780;9.212;2023-07-29T05:18:57;20.60;94.60
19258;DHT22;9763;48.780;9.212;2023-07-29T05:22:22;20.70;94.80
19258;DHT22;9763;48.780;9.212;2023-07-29T05:25:45;20.60;95.10
19258;DHT22;9763;48.780;9.212;2023-07-29T05:29:09;20.70;95.80
19258;DHT22;9763;48.780;9.212;2023-07-29T05:32:32;20.70;95.90
19258;DHT22;9763;48.780;9.212;2023-07-29T05:35:56;20.70;95.80
19258;DHT22;9763;48.780;9.212;2023-07-29T05:39:21;20.80;95.90
19258;DHT22;9763;48.780;9.212;2023-07-29T05:42:46;20.80;95.90
19258;DHT22;9763;48.780;9.212;2023-07-29T05:46:10;20.90;96.30
19258;DHT22;9763;48.780;9.212;2023-07-29T05:49:33;20.90;96.60
19258;DHT22;9763;48.780;9.212;2023-07-29T05:52:57;20.90;97.40
19258;DHT22;9763;48.780;9.212;2023-07-29T05:56:22;21.00;97.40
19258;DHT22;9763;48.780;9.212;2023-07-29T05:59:46;21.20;98.10
19258;DHT22;9763;48.780;9.212;2023-07-29T06:03:10;21.20;98.30
19258;DHT22;9763;48.780;9.212;2023-07-29T06:06:34;21.40;99.10
19258;DHT22;9763;48.780;9.212;2023-07-29T06:09:58;21.50;99.80
19258;DHT22;9763;48.780;9.212;2023-07-29T06:13:23;21.70;99.90
19258;DHT22;9763;48.780;9.212;2023-07-29T06:16:47;22.10;99.90
19258;DHT22;9763;48.780;9.212;2023-07-29T06:20:11;22.40;99.90
19258;DHT22;9763;48.780;9.212;2023-07-29T06:23:34;22.80;99.90
19258;DHT22;9763;48.780;9.212;2023-07-29T06:26:58;23.00;99.90
19258;DHT22;9763;48.780;9.212;2023-07-29T06:30:23;23.20;99.90
19258;DHT22;9763;48.780;9.212;2023-07-29T06:33:46;23.30;98.90
19258;DHT22;9763;48.780;9.212;2023-07-29T06:37:10;23.40;98.80
19258;DHT22;9763;48.780;9.212;2023-07-29T06:40:34;23.40;98.30
19258;DHT22;9763;48.780;9.212;2023-07-29T06:43:57;23.50;96.90
19258;DHT22;9763;48.780;9.212;2023-07-29T06:47:22;23.50;95.70
19258;DHT22;9763;48.780;9.212;2023-07-29T06:50:46;23.40;95.00
19258;DHT22;9763;48.780;9.212;2023-07-29T06:54:10;23.30;95.40
19258;DHT22;9763;48.780;9.212;2023-07-29T06:57:33;23.20;95.50
19258;DHT22;9763;48.780;9.212;2023-07-29T07:00:57;23.20;95.40
19258;DHT22;9763;48.780;9.212;2023-07-29T07:04:22;23.10;94.50
19258;DHT22;9763;48.780;9.212;2023-07-29T07:07:46;23.10;93.90
19258;DHT22;9763;48.780;9.212;2023-07-29T07:11:09;23.20;94.00
19258;DHT22;9763;48.780;9.212;2023-07-29T07:14:33;22.90;93.40
19258;DHT22;9763;48.780;9.212;2023-07-29T07:17:56;22.70;92.80
19258;DHT22;9763;48.780;9.212;2023-07-29T07:21:22;22.90;92.70
19258;DHT22;9763;48.780;9.212;2023-07-29T07:24:45;22.50;92.60
19258;DHT22;9763;48.780;9.212;2023-07-29T07:28:09;22.30;92.80
19258;DHT22;9763;48.780;9.212;2023-07-29T07:31:34;22.30;93.10
19258;DHT22;9763;48.780;9.212;2023-07-29T07:34:58;22.10;93.40
19258;DHT22;9763;48.780;9.212;2023-07-29T07:38:23;22.00;94.00
19258;DHT22;9763;48.780;9.212;2023-07-29T07:41:46;22.00;94.80
19258;DHT22;9763;48.780;9.212;2023-07-29T07:45:10;21.90;96.00
19258;DHT22;9763;48.780;9.212;2023-07-29T07:48:33;21.90;96.90
19258;DHT22;9763;48.780;9.212;2023-07-29T07:51:57;21.90;97.20
19258;DHT22;9763;48.780;9.212;2023-07-29T07:55:22;22.20;97.30
19258;DHT22;9763;48.780;9.212;2023-07-29T07:58:45;22.00;96.80
19258;DHT22;9763;48.780;9.212;2023-07-29T08:02:09;22.10;97.40
19258;DHT22;9763;48.780;9.212;2023-07-29T08:05:33;22.10;98.30
19258;DHT22;9763;48.780;9.212;2023-07-29T08:08:56;22.30;99.00
19258;DHT22;9763;48.780;9.212;2023-07-29T08:12:22;22.40;99.30
19258;DHT22;9763;48.780;9.212;2023-07-29T08:15:47;22.50;98.70
19258;DHT22;9763;48.780;9.212;2023-07-29T08:19:11;22.60;99.20
19258;DHT22;9763;48.780;9.212;2023-07-29T08:22:34;22.80;99.90
19258;DHT22;9763;48.780;9.212;2023-07-29T08:26:00;23.10;99.90
19258;DHT22;9763;48.780;9.212;2023-07-29T08:29:26;23.40;99.90
19258;DHT22;9763;48.780;9.212;2023-07-29T08:32:49;23.70;99.90
19258;DHT22;9763;48.780;9.212;2023-07-29T08:36:13;24.00;99.90
19258;DHT22;9763;48.780;9.212;2023-07-29T08:39:37;24.10;98.90
19258;DHT22;9763;48.780;9.212;2023-07-29T08:43:03;24.20;97.80
19258;DHT22;9763;48.780;9.212;2023-07-29T08:46:30;24.30;97.60
19258;DHT22;9763;48.780;9.212;2023-07-29T08:49:54;24.40;98.30
19258;DHT22;9763;48.780;9.212;2023-07-29T08:53:18;24.40;99.50
19258;DHT22;9763;48.780;9.212;2023-07-29T08:56:43;24.60;99.90
19258;DHT22;9763;48.780;9.212;2023-07-29T09:00:09;24.90;99.90
19258;DHT22;9763;48.780;9.212;2023-07-29T09:03:36;25.30;99.90
19258;DHT22;9763;48.780;9.212;2023-07-29T09:07:00;25.80;99.90
19258;DHT22;9763;48.780;9.212;2023-07-29T09:10:26;26.30;99.90
19258;DHT22;9763;48.780;9.212;2023-07-29T09:13:49;26.90;99.90
19258;DHT22;9763;48.780;9.212;2023-07-29T09:17:14;27.60;99.90
19258;DHT22;9763;48.780;9.212;2023-07-29T09:37:56;28.10;96.60
19258;DHT22;9763;48.780;9.212;2023-07-29T09:41:22;29.40;94.20
19258;DHT22;9763;48.780;9.212;2023-07-29T09:44:47;29.70;91.80
19258;DHT22;9763;48.780;9.212;2023-07-29T09:48:12;29.90;91.80
19258;DHT22;9763;48.780;9.212;2023-07-29T09:51:38;30.00;90.20
19258;DHT22;9763;48.780;9.212;2023-07-29T09:55:04;30.10;88.50
19258;DHT22;9763;48.780;9.212;2023-07-29T09:58:29;30.10;88.10
19258;DHT22;9763;48.780;9.212;2023-07-29T10:01:53;30.00;86.40
19258;DHT22;9763;48.780;9.212;2023-07-29T10:05:17;29.90;87.40
19258;DHT22;9763;48.780;9.212;2023-07-29T10:08:42;29.90;90.40
19258;DHT22;9763;48.780;9.212;2023-07-29T10:12:09;30.20;95.30
19258;DHT22;9763;48.780;9.212;2023-07-29T10:15:34;30.60;95.30
19258;DHT22;9763;48.780;9.212;2023-07-29T10:18:59;31.10;94.80
19258;DHT22;9763;48.780;9.212;2023-07-29T10:22:25;31.40;91.10
19258;DHT22;9763;48.780;9.212;2023-07-29T10:25:57;31.60;88.90
19258;DHT22;9763;48.780;9.212;2023-07-29T10:29:30;31.70;81.80
19258;DHT22;9763;48.780;9.212;2023-07-29T10:32:58;31.60;79.70
19258;DHT22;9763;48.780;9.212;2023-07-29T10:36:26;31.50;80.00
19258;DHT22;9763;48.780;9.212;2023-07-29T10:39:54;31.30;79.50
19258;DHT22;9763;48.780;9.212;2023-07-29T10:43:24;31.10;79.90
19258;DHT22;9763;48.780;9.212;2023-07-29T10:46:50;30.80;79.60
19258;DHT22;9763;48.780;9.212;2023-07-29T10:50:18;30.50;80.30
19258;DHT22;9763;48.780;9.212;2023-07-29T10:53:42;30.20;80.30
19258;DHT22;9763;48.780;9.212;2023-07-29T10:57:06;30.00;81.30
19258;DHT22;9763;48.780;9.212;2023-07-29T11:00:30;29.70;82.70
19258;DHT22;9763;48.780;9.212;2023-07-29T11:04:27;29.70;86.20
19258;DHT22;9763;48.780;9.212;2023-07-29T11:07:53;29.90;84.60
19258;DHT22;9763;48.780;9.212;2023-07-29T11:11:16;30.10;90.20
19258;DHT22;9763;48.780;9.212;2023-07-29T11:14:40;30.30;89.50
19258;DHT22;9763;48.780;9.212;2023-07-29T11:18:04;30.50;86.20
19258;DHT22;9763;48.780;9.212;2023-07-29T11:21:33;30.80;87.90
19258;DHT22;9763;48.780;9.212;2023-07-29T11:24:57;31.10;85.00
19258;DHT22;9763;48.780;9.212;2023-07-29T11:28:20;31.30;82.90
19258;DHT22;9763;48.780;9.212;2023-07-29T11:31:44;31.40;82.10
19258;DHT22;9763;48.780;9.212;2023-07-29T11:35:08;31.40;77.70
19258;DHT22;9763;48.780;9.212;2023-07-29T11:38:36;31.30;75.60
19258;DHT22;9763;48.780;9.212;2023-07-29T11:42:00;31.00;74.30
19258;DHT22;9763;48.780;9.212;2023-07-29T11:45:23;30.70;75.00
19258;DHT22;9763;48.780;9.212;2023-07-29T11:49:03;30.50;76.50
19258;DHT22;9763;48.780;9.212;2023-07-29T11:52:27;30.30;77.10
19258;DHT22;9763;48.780;9.212;2023-07-29T11:55:53;30.10;77.00
19258;DHT22;9763;48.780;9.212;2023-07-29T11:59:17;29.90;77.80
19258;DHT22;9763;48.780;9.212;2023-07-29T12:02:42;29.80;78.00
19258;DHT22;9763;48.780;9.212;2023-07-29T12:06:07;29.90;80.20
19258;DHT22;9763;48.780;9.212;2023-07-29T12:09:32;30.00;81.70
19258;DHT22;9763;48.780;9.212;2023-07-29T12:12:58;30.20;80.00
19258;DHT22;9763;48.780;9.212;2023-07-29T12:16:21;30.30;79.80
19258;DHT22;9763;48.780;9.212;2023-07-29T12:19:45;30.40;80.50
19258;DHT22;9763;48.780;9.212;2023-07-29T12:23:08;30.60;81.90
19258;DHT22;9763;48.780;9.212;2023-07-29T12:26:32;30.70;80.90
19258;DHT22;9763;48.780;9.212;2023-07-29T12:30:01;30.90;80.00
19258;DHT22;9763;48.780;9.212;2023-07-29T12:33:30;31.00;77.40
19258;DHT22;9763;48.780;9.212;2023-07-29T12:36:55;31.10;77.90
19258;DHT22;9763;48.780;9.212;2023-07-29T12:40:23;31.20;77.40
19258;DHT22;9763;48.780;9.212;2023-07-29T12:43:47;31.30;74.50
19258;DHT22;9763;48.780;9.212;2023-07-29T12:47:12;31.50;75.00
19258;DHT22;9763;48.780;9.212;2023-07-29T12:50:36;31.50;71.80
19258;DHT22;9763;48.780;9.212;2023-07-29T12:53:59;31.60;66.90
19258;DHT22;9763;48.780;9.212;2023-07-29T12:57:23;31.60;66.50
19258;DHT22;9763;48.780;9.212;2023-07-29T13:00:47;31.50;66.30
19258;DHT22;9763;48.780;9.212;2023-07-29T13:04:12;31.40;64.60
19258;DHT22;9763;48.780;9.212;2023-07-29T13:07:36;31.30;65.10
19258;DHT22;9763;48.780;9.212;2023-07-29T13:10:59;31.10;67.20
19258;DHT22;9763;48.780;9.212;2023-07-29T13:14:23;31.10;68.30
19258;DHT22;9763;48.780;9.212;2023-07-29T13:17:48;31.10;66.20
19258;DHT22;9763;48.780;9.212;2023-07-29T13:21:13;31.10;66.50
19258;DHT22;9763;48.780;9.212;2023-07-29T13:24:36;31.00;64.50
19258;DHT22;9763;48.780;9.212;2023-07-29T13:28:00;31.00;64.80
19258;DHT22;9763;48.780;9.212;2023-07-29T13:31:24;30.90;64.50
19258;DHT22;9763;48.780;9.212;2023-07-29T13:34:48;30.70;64.70
19258;DHT22;9763;48.780;9.212;2023-07-29T13:38:13;30.60;65.70
19258;DHT22;9763;48.780;9.212;2023-07-29T13:41:37;30.50;65.10
19258;DHT22;9763;48.780;9.212;2023-07-29T13:45:01;30.40;65.10
19258;DHT22;9763;48.780;9.212;2023-07-29T13:48:25;30.30;65.30
19258;DHT22;9763;48.780;9.212;2023-07-29T13:51:48;30.20;65.60
19258;DHT22;9763;48.780;9.212;2023-07-29T13:55:13;30.10;66.00
19258;DHT22;9763;48.780;9.212;2023-07-29T13:58:37;30.10;66.00
19258;DHT22;9763;48.780;9.212;2023-07-29T14:02:00;30.00;64.90
19258;DHT22;9763;48.780;9.212;2023-07-29T14:05:24;29.90;65.00
19258;DHT22;9763;48.780;9.212;2023-07-29T14:08:47;29.80;64.40
19258;DHT22;9763;48.780;9.212;2023-07-29T14:12:12;29.80;66.10
19258;DHT22;9763;48.780;9.212;2023-07-29T14:15:37;29.80;65.40
19258;DHT22;9763;48.780;9.212;2023-07-29T14:19:01;29.80;65.90
19258;DHT22;9763;48.780;9.212;2023-07-29T14:22:25;29.80;65.90
19258;DHT22;9763;48.780;9.212;2023-07-29T14:25:48;29.90;66.10
19258;DHT22;9763;48.780;9.212;2023-07-29T14:29:14;29.90;66.40
19258;DHT22;9763;48.780;9.212;2023-07-29T14:32:37;29.90;65.70
19258;DHT22;9763;48.780;9.212;2023-07-29T14:36:01;30.00;65.70
19258;DHT22;9763;48.780;9.212;2023-07-29T14:39:25;29.90;64.60
19258;DHT22;9763;48.780;9.212;2023-07-29T14:42:49;29.90;64.80
19258;DHT22;9763;48.780;9.212;2023-07-29T14:46:14;29.80;64.40
19258;DHT22;9763;48.780;9.212;2023-07-29T14:49:37;29.70;64.10
19258;DHT22;9763;48.780;9.212;2023-07-29T14:53:01;29.50;64.50
19258;DHT22;9763;48.780;9.212;2023-07-29T14:56:25;29.50;64.60
19258;DHT22;9763;48.780;9.212;2023-07-29T14:59:48;29.40;65.00
19258;DHT22;9763;48.780;9.212;2023-07-29T15:03:13;29.30;65.20
19258;DHT22;9763;48.780;9.212;2023-07-29T15:06:37;29.20;64.90
19258;DHT22;9763;48.780;9.212;2023-07-29T15:10:01;29.20;65.50
19258;DHT22;9763;48.780;9.212;2023-07-29T15:13:25;29.10;65.30
19258;DHT22;9763;48.780;9.212;2023-07-29T15:16:48;29.10;65.20
19258;DHT22;9763;48.780;9.212;2023-07-29T15:20:13;29.10;65.60
19258;DHT22;9763;48.780;9.212;2023-07-29T15:23:37;29.10;65.40
19258;DHT22;9763;48.780;9.212;2023-07-29T15:27:01;29.20;65.70
19258;DHT22;9763;48.780;9.212;2023-07-29T15:30:24;29.20;65.60
19258;DHT22;9763;48.780;9.212;2023-07-29T15:33:48;29.20;65.70
19258;DHT22;9763;48.780;9.212;2023-07-29T15:37:13;29.20;66.10
19258;DHT22;9763;48.780;9.212;2023-07-29T15:40:38;29.30;66.30
19258;DHT22;9763;48.780;9.212;2023-07-29T15:44:02;29.30;66.30
19258;DHT22;9763;48.780;9.212;2023-07-29T15:47:25;29.40;66.20
19258;DHT22;9763;48.780;9.212;2023-07-29T15:50:49;29.40;66.30
19258;DHT22;9763;48.780;9.212;2023-07-29T15:54:14;29.50;66.10
19258;DHT22;9763;48.780;9.212;2023-07-29T15:57:38;29.50;65.70
19258;DHT22;9763;48.780;9.212;2023-07-29T16:01:02;29.50;65.60
19258;DHT22;9763;48.780;9.212;2023-07-29T16:04:25;29.50;65.60
19258;DHT22;9763;48.780;9.212;2023-07-29T16:07:49;29.50;65.00
19258;DHT22;9763;48.780;9.212;2023-07-29T16:11:16;29.50;64.90
19258;DHT22;9763;48.780;9.212;2023-07-29T16:14:40;29.40;65.30
19258;DHT22;9763;48.780;9.212;2023-07-29T16:18:04;29.40;65.40
19258;DHT22;9763;48.780;9.212;2023-07-29T16:21:27;29.40;65.70
19258;DHT22;9763;48.780;9.212;2023-07-29T16:24:51;29.40;64.80
19258;DHT22;9763;48.780;9.212;2023-07-29T16:28:17;29.40;64.80
19258;DHT22;9763;48.780;9.212;2023-07-29T16:31:40;29.40;63.90
19258;DHT22;9763;48.780;9.212;2023-07-29T16:35:05;29.40;64.10
19258;DHT22;9763;48.780;9.212;2023-07-29T16:38:29;29.50;63.00
19258;DHT22;9763;48.780;9.212;2023-07-29T16:41:53;29.40;63.40
19258;DHT22;9763;48.780;9.212;2023-07-29T16:45:21;29.50;62.50
19258;DHT22;9763;48.780;9.212;2023-07-29T16:48:45;29.50;62.10
19258;DHT22;9763;48.780;9.212;2023-07-29T16:52:09;29.40;62.20
19258;DHT22;9763;48.780;9.212;2023-07-29T16:55:33;29.40;62.10
19258;DHT22;9763;48.780;9.212;2023-07-29T16:58:57;29.40;62.50
19258;DHT22;9763;48.780;9.212;2023-07-29T17:02:22;29.40;62.40
19258;DHT22;9763;48.780;9.212;2023-07-29T17:05:45;29.40;61.80
19258;DHT22;9763;48.780;9.212;2023-07-29T17:09:09;29.30;61.70
19258;DHT22;9763;48.780;9.212;2023-07-29T17:12:33;29.30;61.70
19258;DHT22;9763;48.780;9.212;2023-07-29T17:15:56;29.20;61.90
19258;DHT22;9763;48.780;9.212;2023-07-29T17:19:21;29.10;61.40
19258;DHT22;9763;48.780;9.212;2023-07-29T17:22:45;29.00;61.40
19258;DHT22;9763;48.780;9.212;2023-07-29T17:26:09;28.90;61.60
19258;DHT22;9763;48.780;9.212;2023-07-29T17:29:32;28.70;61.60
19258;DHT22;9763;48.780;9.212;2023-07-29T17:32:56;28.60;61.10
19258;DHT22;9763;48.780;9.212;2023-07-29T17:36:24;28.50;61.20
19258;DHT22;9763;48.780;9.212;2023-07-29T17:39:48;28.40;61.20
19258;DHT22;9763;48.780;9.212;2023-07-29T17:43:12;28.20;61.50
19258;DHT22;9763;48.780;9.212;2023-07-29T17:46:35;27.90;61.10
19258;DHT22;9763;48.780;9.212;2023-07-29T17:49:59;27.60;61.60
19258;DHT22;9763;48.780;9.212;2023-07-29T17:53:24;27.40;62.20
19258;DHT22;9763;48.780;9.212;2023-07-29T17:56:48;27.10;62.50
19258;DHT22;9763;48.780;9.212;2023-07-29T18:00:12;26.80;63.30
19258;DHT22;9763;48.780;9.212;2023-07-29T18:03:36;26.60;64.00
19258;DHT22;9763;48.780;9.212;2023-07-29T18:07:00;26.50;64.90
19258;DHT22;9763;48.780;9.212;2023-07-29T18:10:26;26.30;65.60
19258;DHT22;9763;48.780;9.212;2023-07-29T18:13:49;26.20;65.90
19258;DHT22;9763;48.780;9.212;2023-07-29T18:17:13;26.20;66.30
19258;DHT22;9763;48.780;9.212;2023-07-29T18:20:37;26.10;66.40
19258;DHT22;9763;48.780;9.212;2023-07-29T18:24:00;26.10;66.70
19258;DHT22;9763;48.780;9.212;2023-07-29T18:27:25;26.10;66.80
19258;DHT22;9763;48.780;9.212;2023-07-29T18:30:49;26.00;67.40
19258;DHT22;9763;48.780;9.212;2023-07-29T18:34:13;25.90;66.80
19258;DHT22;9763;48.780;9.212;2023-07-29T18:37:36;25.90;67.10
19258;DHT22;9763;48.780;9.212;2023-07-29T18:41:00;25.80;67.10
19258;DHT22;9763;48.780;9.212;2023-07-29T18:44:25;25.80;67.30
19258;DHT22;9763;48.780;9.212;2023-07-29T18:51:12;25.70;67.30
19258;DHT22;9763;48.780;9.212;2023-07-29T18:54:36;25.60;67.40
19258;DHT22;9763;48.780;9.212;2023-07-29T18:58:01;25.50;67.50
19258;DHT22;9763;48.780;9.212;2023-07-29T19:01:26;25.40;67.50
19258;DHT22;9763;48.780;9.212;2023-07-29T19:04:49;25.30;67.60
19258;DHT22;9763;48.780;9.212;2023-07-29T19:08:13;25.30;68.00
19258;DHT22;9763;48.780;9.212;2023-07-29T19:11:37;25.20;68.10
19258;DHT22;9763;48.780;9.212;2023-07-29T19:15:00;25.10;68.30
19258;DHT22;9763;48.780;9.212;2023-07-29T19:18:26;25.00;68.60
19258;DHT22;9763;48.780;9.212;2023-07-29T19:21:49;25.00;68.80
19258;DHT22;9763;48.780;9.212;2023-07-29T19:25:13;25.00;69.00
19258;DHT22;9763;48.780;9.212;2023-07-29T19:28:37;24.90;69.10
19258;DHT22;9763;48.780;9.212;2023-07-29T19:32:00;24.90;69.20
19258;DHT22;9763;48.780;9.212;2023-07-29T19:35:26;24.80;69.30
19258;DHT22;9763;48.780;9.212;2023-07-29T19:38:49;24.80;69.40
19258;DHT22;9763;48.780;9.212;2023-07-29T19:42:13;24.70;69.50
19258;DHT22;9763;48.780;9.212;2023-07-29T19:45:36;24.70;69.70
19258;DHT22;9763;48.780;9.212;2023-07-29T19:49:00;24.60;69.80
19258;DHT22;9763;48.780;9.212;2023-07-29T19:52:25;24.60;69.90
19258;DHT22;9763;48.780;9.212;2023-07-29T19:55:49;24.50;70.00
19258;DHT22;9763;48.780;9.212;2023-07-29T19:59:14;24.50;70.30
19258;DHT22;9763;48.780;9.212;2023-07-29T20:02:37;24.40;70.40
19258;DHT22;9763;48.780;9.212;2023-07-29T20:06:01;24.40;70.60
19258;DHT22;9763;48.780;9.212;2023-07-29T20:09:26;24.40;70.70
19258;DHT22;9763;48.780;9.212;2023-07-29T20:12:50;24.30;70.80
19258;DHT22;9763;48.780;9.212;2023-07-29T20:16:13;24.30;70.90
19258;DHT22;9763;48.780;9.212;2023-07-29T20:19:37;24.30;71.00
19258;DHT22;9763;48.780;9.212;2023-07-29T20:23:00;24.30;71.20
19258;DHT22;9763;48.780;9.212;2023-07-29T20:26:25;24.30;71.30
19258;DHT22;9763;48.780;9.212;2023-07-29T20:29:54;24.30;71.30
19258;DHT22;9763;48.780;9.212;2023-07-29T20:33:17;24.20;71.30
19258;DHT22;9763;48.780;9.212;2023-07-29T20:36:41;24.20;71.40
19258;DHT22;9763;48.780;9.212;2023-07-29T20:40:06;24.20;71.70
19258;DHT22;9763;48.780;9.212;2023-07-29T20:43:32;24.10;71.70
19258;DHT22;9763;48.780;9.212;2023-07-29T20:46:55;24.10;71.80
19258;DHT22;9763;48.780;9.212;2023-07-29T20:50:19;24.10;71.90
19258;DHT22;9763;48.780;9.212;2023-07-29T20:53:43;24.10;72.00
19258;DHT22;9763;48.780;9.212;2023-07-29T20:57:07;24.10;72.00
19258;DHT22;9763;48.780;9.212;2023-07-29T21:00:32;24.10;72.10
19258;DHT22;9763;48.780;9.212;2023-07-29T21:03:56;24.10;72.10
19258;DHT22;9763;48.780;9.212;2023-07-29T21:07:21;24.10;72.10
19258;DHT22;9763;48.780;9.212;2023-07-29T21:10:49;24.10;72.30
19258;DHT22;9763;48.780;9.212;2023-07-29T21:14:13;24.10;72.20
19258;DHT22;9763;48.780;9.212;2023-07-29T21:17:38;24.10;72.30
19258;DHT22;9763;48.780;9.212;2023-07-29T21:21:02;24.00;72.30
19258;DHT22;9763;48.780;9.212;2023-07-29T21:24:25;24.10;72.50
19258;DHT22;9763;48.780;9.212;2023-07-29T21:27:49;24.10;72.50
19258;DHT22;9763;48.780;9.212;2023-07-29T21:31:13;24.10;72.60
19258;DHT22;9763;48.780;9.212;2023-07-29T21:34:40;24.10;72.70
19258;DHT22;9763;48.780;9.212;2023-07-29T21:38:04;24.40;73.00
19258;DHT22;9763;48.780;9.212;2023-07-29T21:41:48;24.10;72.70
19258;DHT22;9763;48.780;9.212;2023-07-29T21:45:11;24.10;72.80
19258;DHT22;9763;48.780;9.212;2023-07-29T21:48:35;24.10;72.80
19258;DHT22;9763;48.780;9.212;2023-07-29T21:52:00;24.10;72.90
19258;DHT22;9763;48.780;9.212;2023-07-29T21:55:24;24.10;72.80
19258;DHT22;9763;48.780;9.212;2023-07-29T21:58:48;24.10;73.00
19258;DHT22;9763;48.780;9.212;2023-07-29T22:02:11;24.20;73.10
19258;DHT22;9763;48.780;9.212;2023-07-29T22:05:35;24.20;73.00
19258;DHT22;9763;48.780;9.212;2023-07-29T22:09:00;24.20;73.00
19258;DHT22;9763;48.780;9.212;2023-07-29T22:12:24;24.10;73.10